Time;durP1;ratioP1;P1;durP2;ratioP2;P2;SDS_P1;SDS_P2;PMS_P1;PMS_P2;Temp;Humidity;BMP_temperature;BMP_pressure;BME280_temperature;BME280_humidity;BME280_pressure;Samples;Min_cycle;Max_cycle;Signal;HPM_P1;HPM_P2
2023/10/02 00:02:42;;;;;;;10.32;5.28;;;;;;;;;;8236532;28;20057;-91
2023/10/02 00:06:47;;;;;;;15.05;5.18;;;;;;;;;;8248510;28;20101;-92
2023/10/02 00:10:51;;;;;;;12.15;5.28;;;;;;;;;;8245257;28;20057;-91
2023/10/02 00:14:55;;;;;;;8.55;4.38;;;;;;;;;;8270121;28;20046;-91
2023/10/02 00:19:18;;;;;;;10.13;4.75;;;;;;;;;;8253819;28;20088;-91
2023/10/02 00:23:22;;;;;;;7.00;4.30;;;;;;;;;;8270223;28;20050;-91
2023/10/02 00:27:26;;;;;;;12.75;4.80;;;;;;;;;;8268692;28;20053;-90
2023/10/02 00:31:36;;;;;;;7.57;4.50;;;;;;;;;;8259784;28;20495;-90
2023/10/02 00:35:50;;;;;;;8.85;5.43;;;;;;;;;;8252198;28;20054;-91
2023/10/02 00:39:55;;;;;;;10.38;5.00;;;;;;;;;;8269182;28;20046;-92
2023/10/02 00:43:57;;;;;;;14.10;5.50;;;;;;;;;;8257489;28;20057;-91
2023/10/02 00:52:19;;;;;;;14.13;6.13;;;;;;;;;;8268155;28;20053;-91
2023/10/02 00:56:24;;;;;;;13.88;6.30;;;;;;;;;;8252462;28;21669;-90
2023/10/02 01:00:35;;;;;;;13.38;5.65;;;;;;;;;;8269012;28;20592;-91
2023/10/02 01:04:38;;;;;;;12.20;6.82;;;;;;;;;;8268803;28;20050;-92
2023/10/02 01:08:49;;;;;;;17.25;7.25;;;;;;;;;;8268221;28;20410;-91
2023/10/02 01:13:01;;;;;;;14.75;7.25;;;;;;;;;;8268368;28;20053;-91
2023/10/02 01:17:07;;;;;;;13.63;7.43;;;;;;;;;;8251122;28;20410;-91
2023/10/02 01:21:11;;;;;;;14.15;7.78;;;;;;;;;;8251517;28;20133;-90
2023/10/02 01:25:23;;;;;;;11.02;6.38;;;;;;;;;;8267556;28;20054;-91
2023/10/02 01:29:29;;;;;;;;;;;;;;;;;;8266881;28;20406;-90
2023/10/02 01:33:32;;;;;;;13.23;6.22;;;;;;;;;;8263417;28;19964;-91
2023/10/02 01:37:35;;;;;;;15.10;5.95;;;;;;;;;;8267643;28;20047;-91
2023/10/02 01:41:42;;;;;;;11.82;6.07;;;;;;;;;;8250565;28;20055;-91
2023/10/02 01:45:46;;;;;;;8.25;5.20;;;;;;;;;;8267284;28;20046;-91
2023/10/02 01:50:00;;;;;;;10.02;5.72;;;;;;;;;;8266944;28;20108;-90
2023/10/02 01:54:15;;;;;;;11.40;5.43;;;;;;;;;;8250830;28;20164;-91
2023/10/02 01:58:19;;;;;;;9.10;5.78;;;;;;;;;;8267215;28;20050;-91
2023/10/02 02:02:22;;;;;;;10.05;5.60;;;;;;;;;;8267926;28;20042;-92
2023/10/02 02:06:25;;;;;;;10.57;5.93;;;;;;;;;;8267914;28;20052;-91
2023/10/02 02:10:28;;;;;;;12.40;6.43;;;;;;;;;;8256904;28;20050;-91
2023/10/02 02:14:33;;;;;;;9.77;6.20;;;;;;;;;;8255875;28;20517;-90
2023/10/02 02:18:35;;;;;;;10.65;6.50;;;;;;;;;;8267094;28;20051;-89
2023/10/02 02:22:38;;;;;;;10.05;5.90;;;;;;;;;;8266496;28;20125;-90
2023/10/02 02:26:41;;;;;;;10.95;5.43;;;;;;;;;;8253993;28;20069;-91
2023/10/02 02:30:46;;;;;;;11.43;6.03;;;;;;;;;;8265168;28;20048;-91
2023/10/02 02:35:00;;;;;;;14.15;6.47;;;;;;;;;;8265820;28;20050;-91
2023/10/02 02:39:17;;;;;;;13.13;6.68;;;;;;;;;;8266365;28;20542;-90
2023/10/02 02:43:21;;;;;;;13.30;6.65;;;;;;;;;;8265396;28;20054;-92
2023/10/02 02:47:27;;;;;;;10.93;5.82;;;;;;;;;;8248928;28;20061;-91
2023/10/02 02:51:33;;;;;;;10.95;5.63;;;;;;;;;;8265146;28;20046;-91
2023/10/02 02:55:36;;;;;;;12.45;5.60;;;;;;;;;;8265038;28;20097;-91
2023/10/02 02:59:39;;;;;;;9.82;5.55;;;;;;;;;;8265128;28;20054;-91
2023/10/02 03:03:43;;;;;;;11.52;5.60;;;;;;;;;;8265134;28;20093;-91
2023/10/02 03:07:48;;;;;;;12.48;5.60;;;;;;;;;;8264563;28;20049;-90
2023/10/02 03:11:52;;;;;;;12.20;5.90;;;;;;;;;;8264971;28;20078;-91
2023/10/02 03:15:56;;;;;;;12.25;6.07;;;;;;;;;;8265105;28;20417;-89
2023/10/02 03:20:04;;;;;;;8.38;5.07;;;;;;;;;;8264685;28;20493;-91
2023/10/02 03:24:07;;;;;;;14.98;5.78;;;;;;;;;;8246041;28;20490;-90
2023/10/02 03:28:16;;;;;;;12.88;5.63;;;;;;;;;;8247310;28;20141;-91
2023/10/02 03:32:19;;;;;;;10.57;5.43;;;;;;;;;;8264239;28;20046;-91
2023/10/02 03:36:25;;;;;;;12.13;6.22;;;;;;;;;;8263712;28;20111;-91
2023/10/02 03:40:27;;;;;;;11.20;5.88;;;;;;;;;;8263827;28;20070;-90
2023/10/02 03:44:33;;;;;;;14.55;6.65;;;;;;;;;;8238733;28;20122;-91
2023/10/02 03:48:36;;;;;;;9.93;5.80;;;;;;;;;;8222521;28;20046;-92
2023/10/02 03:52:45;;;;;;;12.13;6.97;;;;;;;;;;8227948;28;20415;-90
2023/10/02 03:56:49;;;;;;;11.70;6.50;;;;;;;;;;8244846;28;20055;-90
2023/10/02 04:00:54;;;;;;;11.55;6.00;;;;;;;;;;8257958;28;20046;-91
2023/10/02 04:04:57;;;;;;;11.70;5.85;;;;;;;;;;8219933;28;20074;-91
2023/10/02 04:09:12;;;;;;;12.63;6.28;;;;;;;;;;8215246;28;20054;-92
2023/10/02 04:13:15;;;;;;;11.40;5.97;;;;;;;;;;8228676;28;20043;-91
2023/10/02 04:17:22;;;;;;;14.25;6.90;;;;;;;;;;8248806;28;20054;-91
2023/10/02 04:21:37;;;;;;;26.55;12.90;;;;;;;;;;8227235;28;20415;-91
2023/10/02 04:25:42;;;;;;;17.98;7.68;;;;;;;;;;8240034;28;20057;-89
2023/10/02 04:30:09;;;;;;;12.75;6.40;;;;;;;;;;8223846;28;20053;-90
2023/10/02 04:34:16;;;;;;;14.80;7.50;;;;;;;;;;8227494;28;20090;-89
2023/10/02 04:38:48;;;;;;;14.95;7.50;;;;;;;;;;8228679;28;20050;-91
2023/10/02 04:47:09;;;;;;;12.25;6.30;;;;;;;;;;8196551;28;20054;-91
2023/10/02 04:55:23;;;;;;;13.95;6.45;;;;;;;;;;8267565;28;20100;-92
2023/10/02 04:59:50;;;;;;;16.83;6.63;;;;;;;;;;8269232;28;20058;-92
2023/10/02 05:03:52;;;;;;;10.48;6.25;;;;;;;;;;8269156;28;20054;-91
2023/10/02 05:07:56;;;;;;;12.02;6.88;;;;;;;;;;8268970;28;20145;-91
2023/10/02 05:12:03;;;;;;;16.10;7.55;;;;;;;;;;8268525;28;20133;-91
2023/10/02 05:16:14;;;;;;;14.05;6.82;;;;;;;;;;8272879;28;20121;-91
2023/10/02 05:20:17;;;;;;;18.75;11.88;;;;;;;;;;8257932;28;20080;-91
2023/10/02 05:24:20;;;;;;;12.15;7.85;;;;;;;;;;8251361;28;20046;-92
2023/10/02 05:28:23;;;;;;;13.80;8.35;;;;;;;;;;8267860;28;20458;-92
2023/10/02 05:32:31;;;;;;;13.20;7.78;;;;;;;;;;8264134;28;20125;-92
2023/10/02 05:36:35;;;;;;;11.88;6.45;;;;;;;;;;8259327;28;20047;-92
2023/10/02 05:40:47;;;;;;;12.85;7.03;;;;;;;;;;8259749;28;20113;-92
2023/10/02 05:44:51;;;;;;;14.50;7.97;;;;;;;;;;8243866;28;20426;-92
2023/10/02 05:49:07;;;;;;;14.07;7.10;;;;;;;;;;8259223;28;20046;-91
2023/10/02 05:53:11;;;;;;;15.48;7.00;;;;;;;;;;8248002;28;20721;-92
2023/10/02 05:57:17;;;;;;;16.38;6.60;;;;;;;;;;8264843;28;20454;-91
2023/10/02 06:01:23;;;;;;;12.60;6.22;;;;;;;;;;8263244;28;20100;-92
2023/10/02 06:05:31;;;;;;;10.80;6.55;;;;;;;;;;8249111;28;20070;-91
2023/10/02 06:09:43;;;;;;;12.50;6.00;;;;;;;;;;8249368;28;20054;-91
2023/10/02 06:13:46;;;;;;;18.92;6.10;;;;;;;;;;8267238;28;20038;-93
2023/10/02 06:17:49;;;;;;;14.98;6.32;;;;;;;;;;8266852;28;20054;-92
2023/10/02 06:22:05;;;;;;;10.82;5.78;;;;;;;;;;8266654;28;20475;-92
2023/10/02 06:26:09;;;;;;;14.63;6.63;;;;;;;;;;8266701;28;20113;-92
2023/10/02 06:30:16;;;;;;;12.93;7.30;;;;;;;;;;8266679;28;20042;-92
2023/10/02 06:34:19;;;;;;;23.25;12.52;;;;;;;;;;8266729;28;20181;-93
2023/10/02 06:38:23;;;;;;;17.35;10.85;;;;;;;;;;8266141;28;20043;-93
2023/10/02 06:42:28;;;;;;;13.65;6.50;;;;;;;;;;8265581;28;20046;-91
2023/10/02 06:46:32;;;;;;;25.92;17.52;;;;;;;;;;8246509;28;20137;-93
2023/10/02 06:56:10;;;;;;;23.08;12.32;;;;;;;;;;8205717;28;20050;-93
2023/10/02 07:05:32;;;;;;;14.10;5.13;;;;;;;;;;8235465;28;20138;-93
2023/10/02 07:10:43;;;;;;;12.10;5.45;;;;;;;;;;8216389;23;20085;-92
2023/10/02 07:15:10;;;;;;;11.47;5.63;;;;;;;;;;8198082;28;20071;-92
2023/10/02 07:19:16;;;;;;;14.40;6.07;;;;;;;;;;8208552;28;20057;-93
2023/10/02 07:23:30;;;;;;;19.85;6.55;;;;;;;;;;8210592;28;20524;-92
2023/10/02 07:32:53;;;;;;;15.05;4.60;;;;;;;;;;8171301;28;20055;-91
2023/10/02 07:48:57;;;;;;;13.55;4.65;;;;;;;;;;8611366;23;20068;-94
2023/10/02 07:53:04;;;;;;;11.30;4.32;;;;;;;;;;8305095;28;20520;-92
2023/10/02 07:57:06;;;;;;;10.50;4.10;;;;;;;;;;8307738;28;20132;-91
2023/10/02 08:01:14;;;;;;;9.38;4.18;;;;;;;;;;8313661;28;20091;-93
2023/10/02 08:05:20;;;;;;;10.18;4.18;;;;;;;;;;8321530;28;20049;-89
2023/10/02 08:09:37;;;;;;;12.13;4.32;;;;;;;;;;8310510;28;20279;-92
2023/10/02 08:13:48;;;;;;;7.88;4.05;;;;;;;;;;8325166;28;20481;-92
2023/10/02 08:18:14;;;;;;;;;;;;;;;;;;8314002;28;20041;-91
2023/10/02 08:22:19;;;;;;;9.30;3.63;;;;;;;;;;8311602;28;20047;-92
2023/10/02 08:26:22;;;;;;;8.48;3.72;;;;;;;;;;8306474;28;20055;-91
2023/10/02 08:30:31;;;;;;;7.97;3.72;;;;;;;;;;8324006;28;20603;-92
2023/10/02 08:34:37;;;;;;;9.95;4.13;;;;;;;;;;8326207;28;20458;-94
2023/10/02 08:43:55;;;;;;;7.38;3.20;;;;;;;;;;8187108;28;20414;-92
2023/10/02 08:48:07;;;;;;;7.57;3.90;;;;;;;;;;8306561;28;20444;-93
2023/10/02 08:52:11;;;;;;;9.70;3.90;;;;;;;;;;8299553;28;20092;-93
2023/10/02 08:56:37;;;;;;;7.60;3.70;;;;;;;;;;8331113;28;20556;-94
2023/10/02 09:01:20;;;;;;;7.45;3.55;;;;;;;;;;8321770;28;20091;-92
2023/10/02 09:05:35;;;;;;;7.53;3.70;;;;;;;;;;8320554;28;20053;-93
2023/10/02 09:20:38;;;;;;;7.82;3.40;;;;;;;;;;8162618;29;20144;-93
2023/10/02 09:30:42;;;;;;;8.52;3.42;;;;;;;;;;7924509;29;20098;-93
2023/10/02 09:35:08;;;;;;;7.90;3.20;;;;;;;;;;8044748;29;20422;-93
2023/10/02 09:43:28;;;;;;;7.03;3.05;;;;;;;;;;8041780;29;20077;-93
2023/10/02 09:47:32;;;;;;;8.38;3.00;;;;;;;;;;8035709;29;20077;-91
2023/10/02 09:52:09;;;;;;;7.47;3.20;;;;;;;;;;8032173;29;20054;-92
2023/10/02 09:56:14;;;;;;;7.68;3.25;;;;;;;;;;8045254;29;20045;-93
2023/10/02 10:09:50;;;;;;;9.30;3.65;;;;;;;;;;8282827;28;20061;-92
2023/10/02 10:19:27;;;;;;;7.35;3.53;;;;;;;;;;8242816;28;20131;-94
2023/10/02 10:28:50;;;;;;;8.75;3.65;;;;;;;;;;8293348;28;20042;-94
2023/10/02 10:33:33;;;;;;;7.95;3.55;;;;;;;;;;8287534;28;20057;-93
2023/10/02 10:37:46;;;;;;;8.20;3.40;;;;;;;;;;8297121;28;20074;-93
2023/10/02 10:41:57;;;;;;;9.50;3.70;;;;;;;;;;8300772;28;20048;-93
2023/10/02 10:46:12;;;;;;;;;;;;;;;;;;8307024;28;20431;-93
2023/10/02 10:50:30;;;;;;;6.20;3.33;;;;;;;;;;8302334;28;19921;-90
2023/10/02 10:54:39;;;;;;;10.88;3.65;;;;;;;;;;8288318;28;20522;-90
2023/10/02 10:58:43;;;;;;;7.05;3.03;;;;;;;;;;8294335;28;20501;-90
2023/10/02 11:02:52;;;;;;;8.40;3.58;;;;;;;;;;8300540;28;20104;-93
2023/10/02 11:06:56;;;;;;;5.53;2.97;;;;;;;;;;8295501;28;20053;-94
2023/10/02 11:11:06;;;;;;;7.45;3.30;;;;;;;;;;8297074;28;20130;-94
2023/10/02 11:15:43;;;;;;;6.25;3.38;;;;;;;;;;8298095;28;20042;-93
2023/10/02 11:19:50;;;;;;;8.25;3.63;;;;;;;;;;8293525;28;20042;-92
2023/10/02 11:23:55;;;;;;;7.85;3.50;;;;;;;;;;8299282;28;20049;-92
2023/10/02 11:27:58;;;;;;;6.35;2.60;;;;;;;;;;8291586;28;20061;-94
2023/10/02 11:32:23;;;;;;;7.05;2.83;;;;;;;;;;8294638;28;20050;-95
2023/10/02 11:36:38;;;;;;;8.13;3.92;;;;;;;;;;8311299;28;20042;-95
2023/10/02 11:40:52;;;;;;;16.35;8.30;;;;;;;;;;8322598;28;20038;-93
2023/10/02 11:51:01;;;;;;;5.40;2.67;;;;;;;;;;8277136;28;20050;-95
2023/10/02 11:55:24;;;;;;;7.70;3.75;;;;;;;;;;8281050;28;20081;-95
2023/10/02 11:59:30;;;;;;;7.07;3.30;;;;;;;;;;8311659;28;20412;-94
2023/10/02 12:03:36;;;;;;;7.18;3.30;;;;;;;;;;8292875;28;20042;-95
2023/10/02 12:07:45;;;;;;;20.45;5.65;;;;;;;;;;8331653;28;20050;-94
2023/10/02 12:27:16;;;;;;;6.95;2.83;;;;;;;;;;8022842;29;20047;-96
2023/10/02 12:36:27;;;;;;;7.53;3.10;;;;;;;;;;7977058;29;20050;-95
2023/10/02 12:40:40;;;;;;;6.00;3.08;;;;;;;;;;7935644;29;20058;-96
2023/10/02 12:44:54;;;;;;;7.47;3.38;;;;;;;;;;8222700;23;20066;-91
2023/10/02 12:49:01;;;;;;;6.38;2.70;;;;;;;;;;8320410;28;20057;-88
2023/10/02 12:53:21;;;;;;;7.70;2.80;;;;;;;;;;8321986;28;20054;-91
2023/10/02 12:57:26;;;;;;;6.40;3.10;;;;;;;;;;8318777;28;20028;-91
2023/10/02 13:01:31;;;;;;;7.35;2.70;;;;;;;;;;8332155;28;20054;-88
2023/10/02 13:05:35;;;;;;;7.10;2.67;;;;;;;;;;8316527;28;20057;-89
2023/10/02 13:09:44;;;;;;;5.70;2.60;;;;;;;;;;8316640;28;20061;-92
2023/10/02 13:13:52;;;;;;;9.63;3.30;;;;;;;;;;8300749;28;20080;-95
2023/10/02 13:17:58;;;;;;;7.15;2.97;;;;;;;;;;8305983;28;20057;-89
2023/10/02 13:22:10;;;;;;;10.68;3.22;;;;;;;;;;8311462;28;20061;-90
2023/10/02 13:32:01;;;;;;;6.65;2.83;;;;;;;;;;8121619;29;20051;-92
2023/10/02 13:36:07;;;;;;;6.80;2.88;;;;;;;;;;8131329;29;20057;-95
2023/10/02 13:40:51;;;;;;;6.38;2.83;;;;;;;;;;8140153;29;20056;-92
2023/10/02 13:45:02;;;;;;;7.53;3.65;;;;;;;;;;8105151;29;20116;-90
2023/10/02 13:54:03;;;;;;;37.25;20.65;;;;;;;;;;8179139;29;20055;-89
2023/10/02 14:02:40;;;;;;;7.38;3.88;;;;;;;;;;8130645;29;20116;-94
2023/10/02 14:07:03;;;;;;;8.32;3.25;;;;;;;;;;8193702;28;20078;-89
2023/10/02 14:15:54;;;;;;;16.13;8.70;;;;;;;;;;8206049;28;20062;-90
2023/10/02 14:20:11;;;;;;;15.27;6.80;;;;;;;;;;8234587;28;20086;-96
2023/10/02 14:24:19;;;;;;;9.18;5.20;;;;;;;;;;8223126;28;20557;-92
2023/10/02 14:28:27;;;;;;;8.93;5.03;;;;;;;;;;8241623;28;20183;-92
2023/10/02 14:32:33;;;;;;;9.50;4.47;;;;;;;;;;8286803;28;20053;-95
2023/10/02 14:36:44;;;;;;;9.80;4.03;;;;;;;;;;8310111;28;20210;-93
2023/10/02 14:41:14;;;;;;;9.52;4.53;;;;;;;;;;8331123;28;20057;-92
2023/10/02 14:46:02;;;;;;;8.35;3.80;;;;;;;;;;8329928;28;20591;-96
2023/10/02 14:50:50;;;;;;;6.85;3.83;;;;;;;;;;8185668;29;20055;-92
2023/10/02 15:00:44;;;;;;;7.93;4.13;;;;;;;;;;8095079;29;20068;-94
2023/10/02 15:05:09;;;;;;;8.23;4.30;;;;;;;;;;8722699;23;20066;-92
2023/10/02 15:14:14;;;;;;;8.93;4.32;;;;;;;;;;8218926;28;20058;-93
2023/10/02 15:23:06;;;;;;;11.30;6.03;;;;;;;;;;8181013;29;20079;-95
2023/10/02 15:36:24;;;;;;;10.35;6.00;;;;;;;;;;8157524;29;20100;-96
2023/10/02 15:40:48;;;;;;;12.98;6.45;;;;;;;;;;8170151;29;20144;-92
2023/10/02 15:44:53;;;;;;;9.63;4.50;;;;;;;;;;8201315;29;20051;-94
2023/10/02 15:49:10;;;;;;;7.63;4.50;;;;;;;;;;8214750;29;21399;-94
2023/10/02 15:53:17;;;;;;;9.55;4.68;;;;;;;;;;8215568;29;20084;-94
2023/10/02 15:57:20;;;;;;;12.57;5.03;;;;;;;;;;8202600;29;20090;-93
2023/10/02 16:01:24;;;;;;;9.35;4.65;;;;;;;;;;8232761;28;20062;-91
2023/10/02 16:05:29;;;;;;;9.27;4.70;;;;;;;;;;8240634;28;20063;-94
2023/10/02 16:09:38;;;;;;;12.40;5.88;;;;;;;;;;8242860;28;20042;-94
2023/10/02 16:13:49;;;;;;;10.95;5.90;;;;;;;;;;8240282;28;20079;-89
2023/10/02 16:17:57;;;;;;;10.13;5.68;;;;;;;;;;8249298;28;20042;-92
2023/10/02 16:22:01;;;;;;;9.88;5.68;;;;;;;;;;8211353;28;20051;-93
2023/10/02 16:26:12;;;;;;;12.07;6.10;;;;;;;;;;8240736;28;20046;-94
2023/10/02 16:30:17;;;;;;;21.83;10.23;;;;;;;;;;8212548;28;20045;-92
2023/10/02 16:34:21;;;;;;;18.67;7.80;;;;;;;;;;8232000;28;20487;-95
2023/10/02 16:38:25;;;;;;;13.43;7.63;;;;;;;;;;8242989;28;20053;-92
2023/10/02 16:42:30;;;;;;;13.25;6.40;;;;;;;;;;8247958;28;20104;-93
2023/10/02 16:46:33;;;;;;;58.65;21.20;;;;;;;;;;8253661;28;20070;-94
2023/10/02 16:50:36;;;;;;;30.55;14.30;;;;;;;;;;8251150;28;20509;-94
2023/10/02 16:54:39;;;;;;;39.03;20.13;;;;;;;;;;8255773;28;20051;-95
2023/10/02 16:58:46;;;;;;;114.55;44.90;;;;;;;;;;8259526;28;20046;-94
2023/10/02 17:02:51;;;;;;;114.95;50.58;;;;;;;;;;8255714;28;20635;-93
2023/10/02 17:06:54;;;;;;;26.33;13.50;;;;;;;;;;8214498;28;20059;-94
2023/10/02 17:10:57;;;;;;;25.83;13.48;;;;;;;;;;8251662;28;20051;-96
2023/10/02 17:15:02;;;;;;;20.30;10.55;;;;;;;;;;8226531;28;20443;-95
2023/10/02 17:19:05;;;;;;;26.08;11.15;;;;;;;;;;8240727;28;20126;-95
2023/10/02 17:23:09;;;;;;;14.18;7.60;;;;;;;;;;8230534;28;20121;-94
2023/10/02 17:27:14;;;;;;;21.33;11.07;;;;;;;;;;8258583;28;20039;-92
2023/10/02 17:32:10;;;;;;;45.72;15.57;;;;;;;;;;8246791;28;20080;-94
2023/10/02 17:36:26;;;;;;;107.53;30.30;;;;;;;;;;8228622;28;20057;-92
2023/10/02 17:40:43;;;;;;;40.00;14.23;;;;;;;;;;8235060;28;20486;-88
2023/10/02 17:44:49;;;;;;;163.40;39.53;;;;;;;;;;8242300;28;20055;-93
2023/10/02 17:48:54;;;;;;;33.17;11.48;;;;;;;;;;8227288;28;20044;-95
2023/10/02 17:53:01;;;;;;;31.73;11.93;;;;;;;;;;8249950;28;20566;-94
2023/10/02 17:57:05;;;;;;;101.72;29.88;;;;;;;;;;8245183;28;20050;-94
2023/10/02 18:01:19;;;;;;;59.30;24.73;;;;;;;;;;8220666;28;20041;-90
2023/10/02 18:05:28;;;;;;;13.95;6.35;;;;;;;;;;8234443;28;20043;-90
2023/10/02 18:09:35;;;;;;;11.38;6.72;;;;;;;;;;8195697;28;20117;-93
2023/10/02 18:13:40;;;;;;;10.95;5.25;;;;;;;;;;8235097;28;20129;-93
2023/10/02 18:17:46;;;;;;;44.25;14.50;;;;;;;;;;8229166;28;20418;-94
2023/10/02 18:21:51;;;;;;;13.25;6.05;;;;;;;;;;8230003;28;20043;-94
2023/10/02 18:25:58;;;;;;;12.02;5.25;;;;;;;;;;8225558;28;20081;-95
2023/10/02 18:30:05;;;;;;;14.68;8.48;;;;;;;;;;8233205;28;20251;-93
2023/10/02 18:34:13;;;;;;;13.70;6.63;;;;;;;;;;8203264;28;20062;-95
2023/10/02 18:38:20;;;;;;;21.80;10.88;;;;;;;;;;8234260;28;20043;-90
2023/10/02 18:42:25;;;;;;;14.98;8.50;;;;;;;;;;8220601;28;20558;-91
2023/10/02 18:46:33;;;;;;;12.10;6.22;;;;;;;;;;8225267;28;20074;-91
2023/10/02 18:50:41;;;;;;;8.73;4.60;;;;;;;;;;8230746;28;20472;-90
2023/10/02 18:54:46;;;;;;;10.45;5.82;;;;;;;;;;8234110;28;20066;-93
2023/10/02 18:58:54;;;;;;;12.10;5.72;;;;;;;;;;8233900;28;20042;-92
2023/10/02 19:03:02;;;;;;;14.23;7.28;;;;;;;;;;8221100;28;20055;-93
2023/10/02 19:07:07;;;;;;;13.45;6.45;;;;;;;;;;8233495;28;20442;-93
2023/10/02 19:11:18;;;;;;;16.00;7.57;;;;;;;;;;8220129;28;20050;-91
2023/10/02 19:15:26;;;;;;;16.15;7.75;;;;;;;;;;8233377;28;20097;-92
2023/10/02 19:19:30;;;;;;;17.25;7.28;;;;;;;;;;8232943;28;20089;-92
2023/10/02 19:23:35;;;;;;;13.50;7.10;;;;;;;;;;8242990;28;20046;-92
2023/10/02 19:27:40;;;;;;;13.60;6.28;;;;;;;;;;8248724;28;20057;-92
2023/10/02 19:31:46;;;;;;;12.77;6.35;;;;;;;;;;8233042;28;20138;-92
2023/10/02 19:35:52;;;;;;;14.93;7.53;;;;;;;;;;8227028;28;20054;-90
2023/10/02 19:39:58;;;;;;;13.57;8.25;;;;;;;;;;8266179;28;20046;-92
2023/10/02 19:44:03;;;;;;;13.90;7.25;;;;;;;;;;8257442;28;20046;-93
2023/10/02 19:48:12;;;;;;;54.08;16.98;;;;;;;;;;8241061;28;20125;-92
2023/10/02 19:52:18;;;;;;;16.10;8.32;;;;;;;;;;8256009;28;20046;-91
2023/10/02 19:56:24;;;;;;;33.88;12.45;;;;;;;;;;8237954;28;20130;-93
2023/10/02 20:00:27;;;;;;;25.10;11.35;;;;;;;;;;8226269;28;20483;-92
2023/10/02 20:04:33;;;;;;;31.67;14.23;;;;;;;;;;8233406;28;20142;-92
2023/10/02 20:08:38;;;;;;;29.08;12.95;;;;;;;;;;8257918;28;20134;-92
2023/10/02 20:12:43;;;;;;;25.48;11.20;;;;;;;;;;8240256;28;20122;-93
2023/10/02 20:16:48;;;;;;;21.98;11.45;;;;;;;;;;8256077;28;20043;-93
2023/10/02 20:20:54;;;;;;;27.92;12.02;;;;;;;;;;8265832;28;20545;-92
2023/10/02 20:24:58;;;;;;;22.45;11.68;;;;;;;;;;8210345;28;20505;-92
2023/10/02 20:29:02;;;;;;;19.58;9.60;;;;;;;;;;8238714;28;20077;-92
2023/10/02 20:33:08;;;;;;;21.50;10.43;;;;;;;;;;8262060;28;20863;-92
2023/10/02 20:37:13;;;;;;;23.05;9.85;;;;;;;;;;8270526;28;20121;-90
2023/10/02 20:41:16;;;;;;;22.55;11.25;;;;;;;;;;8245386;28;20137;-92
2023/10/02 20:45:19;;;;;;;22.90;11.25;;;;;;;;;;8250773;28;20499;-90
2023/10/02 20:49:22;;;;;;;21.92;10.93;;;;;;;;;;8237896;28;20129;-91
2023/10/02 20:53:26;;;;;;;27.73;12.68;;;;;;;;;;8268311;28;20125;-92
2023/10/02 20:57:29;;;;;;;29.10;12.73;;;;;;;;;;8245216;28;20058;-91
2023/10/02 21:01:32;;;;;;;31.10;13.82;;;;;;;;;;8268854;28;20125;-91
2023/10/02 21:05:35;;;;;;;25.45;13.38;;;;;;;;;;8243864;28;20058;-92
2023/10/02 21:09:40;;;;;;;25.67;12.10;;;;;;;;;;8249963;28;20126;-92
2023/10/02 21:13:43;;;;;;;25.10;12.65;;;;;;;;;;8262514;28;20070;-92
2023/10/02 21:17:46;;;;;;;23.90;12.40;;;;;;;;;;8237004;28;20121;-92
2023/10/02 21:21:49;;;;;;;25.45;12.75;;;;;;;;;;8249161;28;20054;-91
2023/10/02 21:25:53;;;;;;;25.98;12.65;;;;;;;;;;8268656;28;20044;-91
2023/10/02 21:29:57;;;;;;;33.17;13.30;;;;;;;;;;8258139;28;20078;-92
2023/10/02 21:34:00;;;;;;;30.92;13.20;;;;;;;;;;8254615;28;20039;-92
2023/10/02 21:38:03;;;;;;;26.95;12.70;;;;;;;;;;8255941;28;20125;-91
2023/10/02 21:42:07;;;;;;;27.42;13.30;;;;;;;;;;8248712;28;20121;-92
2023/10/02 21:46:10;;;;;;;28.38;12.82;;;;;;;;;;8247970;28;20042;-91
2023/10/02 21:50:14;;;;;;;28.05;13.77;;;;;;;;;;8254701;28;20053;-92
2023/10/02 21:54:18;;;;;;;31.67;14.45;;;;;;;;;;8254923;28;20056;-92
2023/10/02 21:58:22;;;;;;;25.05;12.20;;;;;;;;;;8248544;28;20049;-91
2023/10/02 22:02:25;;;;;;;29.52;13.27;;;;;;;;;;8235659;28;20125;-91
2023/10/02 22:06:29;;;;;;;28.40;14.18;;;;;;;;;;8222284;28;20067;-92
2023/10/02 22:10:32;;;;;;;31.27;12.73;;;;;;;;;;8248269;28;20098;-92
2023/10/02 22:14:38;;;;;;;29.25;13.00;;;;;;;;;;8217856;28;20055;-92
2023/10/02 22:18:46;;;;;;;31.42;13.70;;;;;;;;;;8223544;28;20407;-91
2023/10/02 22:22:52;;;;;;;29.08;13.68;;;;;;;;;;8228927;28;20584;-92
2023/10/02 22:26:55;;;;;;;29.33;13.38;;;;;;;;;;8239342;28;20046;-92
2023/10/02 22:31:01;;;;;;;26.13;12.65;;;;;;;;;;8230626;28;20051;-91
2023/10/02 22:35:07;;;;;;;29.52;13.32;;;;;;;;;;8221393;28;20483;-91
2023/10/02 22:39:13;;;;;;;28.25;13.35;;;;;;;;;;8229664;28;20050;-89
2023/10/02 22:43:16;;;;;;;25.90;12.00;;;;;;;;;;8227405;28;20097;-90
2023/10/02 22:47:21;;;;;;;30.48;14.55;;;;;;;;;;8237881;28;20549;-89
2023/10/02 22:51:24;;;;;;;30.60;14.02;;;;;;;;;;8256264;28;20058;-92
2023/10/02 22:55:29;;;;;;;28.38;13.25;;;;;;;;;;8236751;28;20137;-91
2023/10/02 22:59:32;;;;;;;31.65;13.48;;;;;;;;;;8234945;28;20051;-91
2023/10/02 23:03:37;;;;;;;30.90;13.57;;;;;;;;;;8230581;28;20058;-90
2023/10/02 23:07:40;;;;;;;35.42;15.90;;;;;;;;;;8246819;28;20068;-91
2023/10/02 23:11:43;;;;;;;39.53;15.38;;;;;;;;;;8264046;28;20073;-91
2023/10/02 23:15:46;;;;;;;37.78;17.00;;;;;;;;;;8249580;28;20134;-91
2023/10/02 23:19:50;;;;;;;44.00;16.55;;;;;;;;;;8213498;28;20058;-92
2023/10/02 23:23:53;;;;;;;44.80;19.00;;;;;;;;;;8219771;28;20053;-91
2023/10/02 23:27:59;;;;;;;42.47;17.63;;;;;;;;;;8254214;28;20046;-91
2023/10/02 23:32:04;;;;;;;33.50;16.33;;;;;;;;;;8242173;28;20503;-90
2023/10/02 23:36:10;;;;;;;42.58;16.73;;;;;;;;;;8228238;28;20528;-90
2023/10/02 23:40:16;;;;;;;36.72;16.23;;;;;;;;;;8257230;28;20132;-92
2023/10/02 23:44:20;;;;;;;38.03;16.23;;;;;;;;;;8226294;28;20509;-91
2023/10/02 23:48:25;;;;;;;38.58;15.68;;;;;;;;;;8247600;28;20554;-90
2023/10/02 23:52:30;;;;;;;37.78;15.60;;;;;;;;;;8252071;28;20047;-91
2023/10/02 23:56:33;;;;;;;36.63;15.30;;;;;;;;;;8236243;28;20053;-91
